createdAt,value
2022-08-25T00:01:59.343Z,96.50
2022-08-25T00:04:30.240Z,96.80
2022-08-25T00:07:02.960Z,97.60
2022-08-25T00:09:33.633Z,98.30
2022-08-25T00:12:03.341Z,99.00
2022-08-25T00:14:35.864Z,99.10
2022-08-25T00:17:07.375Z,99.30
2022-08-25T00:19:38.844Z,99.30
2022-08-25T00:22:08.835Z,99.30
2022-08-25T00:24:37.385Z,99.70
2022-08-25T00:27:06.428Z,99.90
2022-08-25T00:29:38.066Z,99.90
2022-08-25T00:32:08.247Z,99.90
2022-08-25T00:34:39.020Z,99.90
2022-08-25T00:37:10.303Z,99.90
2022-08-25T00:39:40.420Z,99.90
2022-08-25T00:42:11.864Z,99.90
2022-08-25T00:44:45.102Z,99.90
2022-08-25T00:47:15.193Z,99.90
2022-08-25T00:49:48.750Z,99.90
2022-08-25T00:52:22.021Z,99.90
2022-08-25T00:54:57.725Z,99.90
2022-08-25T00:57:34.601Z,99.90
2022-08-25T01:00:06.959Z,99.90
2022-08-25T01:02:36.711Z,99.90
2022-08-25T01:05:05.878Z,99.90
2022-08-25T01:07:34.514Z,99.90
2022-08-25T01:10:03.268Z,99.90
2022-08-25T01:12:31.607Z,99.90
2022-08-25T01:15:01.569Z,99.90
2022-08-25T01:17:37.046Z,99.90
2022-08-25T01:20:06.429Z,99.90
2022-08-25T01:22:38.083Z,99.90
2022-08-25T01:25:23.203Z,99.90
2022-08-25T01:27:52.242Z,99.90
2022-08-25T01:30:22.539Z,99.90
2022-08-25T01:32:50.869Z,99.90
2022-08-25T01:35:19.664Z,99.90
2022-08-25T01:37:49.833Z,99.90
2022-08-25T01:40:18.402Z,99.90
2022-08-25T01:43:03.182Z,99.90
2022-08-25T01:45:31.722Z,99.90
2022-08-25T01:48:00.152Z,99.90
2022-08-25T01:50:29.159Z,99.90
2022-08-25T01:53:04.777Z,99.90
2022-08-25T01:55:51.597Z,99.90
2022-08-25T01:58:21.227Z,99.90
2022-08-25T02:00:51.265Z,99.90
2022-08-25T02:03:19.924Z,99.90
2022-08-25T02:05:49.025Z,99.90
2022-08-25T02:08:18.923Z,99.90
2022-08-25T02:10:48.240Z,99.90
2022-08-25T02:13:17.590Z,99.90
2022-08-25T02:15:50.871Z,99.90
2022-08-25T02:18:20.531Z,99.90
2022-08-25T02:20:49.462Z,99.90
2022-08-25T02:23:19.444Z,99.90
2022-08-25T02:25:48.055Z,99.90
2022-08-25T02:28:16.814Z,99.90
2022-08-25T02:30:45.939Z,99.90
2022-08-25T02:33:14.271Z,99.90
2022-08-25T02:35:42.583Z,99.90
2022-08-25T02:38:10.895Z,99.90
2022-08-25T02:40:40.760Z,99.90
2022-08-25T02:43:09.131Z,99.90
2022-08-25T02:48:06.505Z,99.90
2022-08-25T02:50:35.050Z,99.90
2022-08-25T02:53:03.400Z,99.90
2022-08-25T02:55:31.834Z,99.90
2022-08-25T02:58:04.447Z,99.90
2022-08-25T03:00:33.430Z,99.90
2022-08-25T03:03:02.290Z,99.90
2022-08-25T03:05:30.634Z,99.90
2022-08-25T03:07:59.077Z,99.90
2022-08-25T03:10:28.166Z,99.90
2022-08-25T03:12:56.464Z,99.90
2022-08-25T03:15:27.839Z,99.90
2022-08-25T03:17:59.104Z,99.90
2022-08-25T03:20:29.785Z,99.90
2022-08-25T03:22:58.198Z,99.90
2022-08-25T03:25:43.892Z,99.90
2022-08-25T03:28:12.198Z,99.90
2022-08-25T03:30:42.215Z,99.90
2022-08-25T03:33:10.585Z,99.90
2022-08-25T03:35:39.176Z,99.90
2022-08-25T03:38:07.627Z,99.90
2022-08-25T03:40:36.074Z,99.90
2022-08-25T03:43:04.392Z,99.90
2022-08-25T03:45:32.885Z,99.90
2022-08-25T03:48:02.627Z,99.90
2022-08-25T03:50:31.237Z,99.90
2022-08-25T03:52:59.519Z,99.90
2022-08-25T03:55:28.275Z,99.90
2022-08-25T03:57:58.171Z,99.90
2022-08-25T04:00:26.511Z,99.90
2022-08-25T04:02:54.822Z,99.90
2022-08-25T04:05:24.539Z,99.90
2022-08-25T04:07:55.895Z,99.90
2022-08-25T04:10:24.310Z,99.90
2022-08-25T04:12:52.626Z,99.90
2022-08-25T04:15:21.178Z,99.90
2022-08-25T04:17:51.853Z,99.90
2022-08-25T04:20:22.216Z,99.90
2022-08-25T04:22:51.880Z,99.90
2022-08-25T04:25:20.197Z,99.90
2022-08-25T04:27:48.471Z,99.90
2022-08-25T04:30:17.242Z,99.90
2022-08-25T04:32:45.665Z,99.90
2022-08-25T04:35:13.992Z,99.90
2022-08-25T06:17:50.327Z,99.90
2022-08-25T06:20:25.379Z,99.90
2022-08-25T06:22:54.961Z,99.90
2022-08-25T06:25:26.483Z,99.90
2022-08-25T06:27:55.496Z,99.90
2022-08-25T06:30:28.929Z,99.90
2022-08-25T06:32:57.859Z,99.90
2022-08-25T06:35:28.204Z,99.90
2022-08-25T06:37:56.495Z,99.90
2022-08-25T06:40:26.146Z,99.90
2022-08-25T06:42:54.629Z,99.90
2022-08-25T06:45:23.162Z,99.90
2022-08-25T06:47:52.853Z,99.90
2022-08-25T06:50:21.677Z,99.90
2022-08-25T06:52:51.787Z,99.90
2022-08-25T06:55:20.234Z,99.90
2022-08-25T06:57:48.606Z,99.90
2022-08-25T07:00:17.632Z,99.90
2022-08-25T07:02:47.088Z,99.90
2022-08-25T07:05:26.944Z,99.90
2022-08-25T07:08:03.999Z,99.90
2022-08-25T07:10:32.506Z,99.90
2022-08-25T07:13:02.265Z,99.90
2022-08-25T07:15:30.591Z,99.90
2022-08-25T07:17:59.497Z,99.90
2022-08-25T07:20:29.321Z,99.90
2022-08-25T07:22:59.033Z,99.90
2022-08-25T07:25:28.843Z,99.90
2022-08-25T07:27:58.939Z,99.90
2022-08-25T07:30:28.344Z,99.90
2022-08-25T07:32:56.762Z,99.90
2022-08-25T07:35:26.277Z,99.90
2022-08-25T07:37:57.156Z,99.90
2022-08-25T07:40:30.398Z,99.90
2022-08-25T07:43:02.584Z,99.90
2022-08-25T07:45:34.020Z,99.90
2022-08-25T07:48:05.390Z,99.90
2022-08-25T07:50:34.900Z,99.90
2022-08-25T07:53:03.660Z,99.90
2022-08-25T07:55:36.496Z,99.90
2022-08-25T07:58:05.966Z,99.90
2022-08-25T08:00:36.989Z,99.30
2022-08-25T08:03:08.216Z,99.90
2022-08-25T08:05:42.700Z,98.10
